sensor_id;sensor_type;location;lat;lon;timestamp;temperature;humidity
4755;DHT22;2391;47.212;7.542;2023-05-07T00:00:03;20.30;91.20
4755;DHT22;2391;47.212;7.542;2023-05-07T00:02:32;20.30;91.30
4755;DHT22;2391;47.212;7.542;2023-05-07T00:04:58;20.30;91.40
4755;DHT22;2391;47.212;7.542;2023-05-07T00:07:23;20.20;91.30
4755;DHT22;2391;47.212;7.542;2023-05-07T00:09:49;20.20;91.30
4755;DHT22;2391;47.212;7.542;2023-05-07T00:12:15;20.20;91.20
4755;DHT22;2391;47.212;7.542;2023-05-07T00:14:41;20.20;91.30
4755;DHT22;2391;47.212;7.542;2023-05-07T00:17:07;20.20;91.30
4755;DHT22;2391;47.212;7.542;2023-05-07T00:19:32;20.10;91.30
4755;DHT22;2391;47.212;7.542;2023-05-07T00:21:58;20.10;91.30
4755;DHT22;2391;47.212;7.542;2023-05-07T00:24:24;20.10;91.40
4755;DHT22;2391;47.212;7.542;2023-05-07T00:26:49;20.10;91.30
4755;DHT22;2391;47.212;7.542;2023-05-07T00:29:15;20.10;91.20
4755;DHT22;2391;47.212;7.542;2023-05-07T00:31:41;20.00;91.30
4755;DHT22;2391;47.212;7.542;2023-05-07T00:34:07;20.00;91.40
4755;DHT22;2391;47.212;7.542;2023-05-07T00:36:32;20.00;91.50
4755;DHT22;2391;47.212;7.542;2023-05-07T00:39:00;20.00;91.40
4755;DHT22;2391;47.212;7.542;2023-05-07T00:41:28;19.90;91.50
4755;DHT22;2391;47.212;7.542;2023-05-07T00:43:53;19.90;91.50
4755;DHT22;2391;47.212;7.542;2023-05-07T00:46:20;19.90;91.50
4755;DHT22;2391;47.212;7.542;2023-05-07T00:48:47;19.80;91.50
4755;DHT22;2391;47.212;7.542;2023-05-07T00:51:14;19.80;91.50
4755;DHT22;2391;47.212;7.542;2023-05-07T00:53:39;19.80;91.50
4755;DHT22;2391;47.212;7.542;2023-05-07T00:56:06;19.80;91.40
4755;DHT22;2391;47.212;7.542;2023-05-07T00:58:33;19.80;91.50
4755;DHT22;2391;47.212;7.542;2023-05-07T01:01:00;19.80;91.50
4755;DHT22;2391;47.212;7.542;2023-05-07T01:03:25;19.70;91.40
4755;DHT22;2391;47.212;7.542;2023-05-07T01:05:53;19.80;91.40
4755;DHT22;2391;47.212;7.542;2023-05-07T01:08:20;19.70;91.40
4755;DHT22;2391;47.212;7.542;2023-05-07T01:10:47;19.70;91.70
4755;DHT22;2391;47.212;7.542;2023-05-07T01:13:14;19.70;91.50
4755;DHT22;2391;47.212;7.542;2023-05-07T01:15:40;19.60;91.40
4755;DHT22;2391;47.212;7.542;2023-05-07T01:18:08;19.60;91.50
4755;DHT22;2391;47.212;7.542;2023-05-07T01:20:34;19.60;91.50
4755;DHT22;2391;47.212;7.542;2023-05-07T01:23:00;19.50;91.50
4755;DHT22;2391;47.212;7.542;2023-05-07T01:25:26;19.50;91.60
4755;DHT22;2391;47.212;7.542;2023-05-07T01:27:52;19.40;91.50
4755;DHT22;2391;47.212;7.542;2023-05-07T01:30:20;19.40;91.50
4755;DHT22;2391;47.212;7.542;2023-05-07T01:32:52;19.40;91.70
4755;DHT22;2391;47.212;7.542;2023-05-07T01:35:21;19.30;91.70
4755;DHT22;2391;47.212;7.542;2023-05-07T01:37:48;19.30;91.90
4755;DHT22;2391;47.212;7.542;2023-05-07T01:40:15;19.20;92.00
4755;DHT22;2391;47.212;7.542;2023-05-07T01:42:43;19.20;91.90
4755;DHT22;2391;47.212;7.542;2023-05-07T01:45:09;19.20;91.90
4755;DHT22;2391;47.212;7.542;2023-05-07T01:47:36;19.20;91.90
4755;DHT22;2391;47.212;7.542;2023-05-07T01:50:08;19.20;91.80
4755;DHT22;2391;47.212;7.542;2023-05-07T01:52:31;19.20;91.80
4755;DHT22;2391;47.212;7.542;2023-05-07T01:54:57;19.20;91.80
4755;DHT22;2391;47.212;7.542;2023-05-07T01:57:23;19.20;91.70
4755;DHT22;2391;47.212;7.542;2023-05-07T01:59:49;19.20;91.80
4755;DHT22;2391;47.212;7.542;2023-05-07T02:02:14;19.10;91.80
4755;DHT22;2391;47.212;7.542;2023-05-07T02:04:40;19.10;91.80
4755;DHT22;2391;47.212;7.542;2023-05-07T02:07:06;19.10;91.80
4755;DHT22;2391;47.212;7.542;2023-05-07T02:09:32;19.10;91.80
4755;DHT22;2391;47.212;7.542;2023-05-07T02:11:58;19.10;91.80
4755;DHT22;2391;47.212;7.542;2023-05-07T02:14:23;19.00;92.10
4755;DHT22;2391;47.212;7.542;2023-05-07T02:16:49;19.00;91.80
4755;DHT22;2391;47.212;7.542;2023-05-07T02:19:15;19.00;91.80
4755;DHT22;2391;47.212;7.542;2023-05-07T02:21:41;19.00;91.70
4755;DHT22;2391;47.212;7.542;2023-05-07T02:24:07;19.00;91.80
4755;DHT22;2391;47.212;7.542;2023-05-07T02:26:33;18.90;91.70
4755;DHT22;2391;47.212;7.542;2023-05-07T02:28:59;18.90;91.70
4755;DHT22;2391;47.212;7.542;2023-05-07T02:31:25;18.90;91.60
4755;DHT22;2391;47.212;7.542;2023-05-07T02:33:51;18.90;91.70
4755;DHT22;2391;47.212;7.542;2023-05-07T02:36:16;18.90;91.70
4755;DHT22;2391;47.212;7.542;2023-05-07T02:38:42;18.90;91.70
4755;DHT22;2391;47.212;7.542;2023-05-07T02:41:08;18.90;91.70
4755;DHT22;2391;47.212;7.542;2023-05-07T02:43:34;18.90;91.70
4755;DHT22;2391;47.212;7.542;2023-05-07T02:46:01;18.80;91.80
4755;DHT22;2391;47.212;7.542;2023-05-07T02:48:28;18.80;91.70
4755;DHT22;2391;47.212;7.542;2023-05-07T02:50:54;18.80;91.70
4755;DHT22;2391;47.212;7.542;2023-05-07T02:53:19;18.80;91.70
4755;DHT22;2391;47.212;7.542;2023-05-07T02:55:45;18.80;91.80
4755;DHT22;2391;47.212;7.542;2023-05-07T02:58:11;18.70;91.70
4755;DHT22;2391;47.212;7.542;2023-05-07T03:00:37;18.70;91.60
4755;DHT22;2391;47.212;7.542;2023-05-07T03:03:02;18.70;91.60
4755;DHT22;2391;47.212;7.542;2023-05-07T03:05:28;18.60;91.60
4755;DHT22;2391;47.212;7.542;2023-05-07T03:07:54;18.60;91.70
4755;DHT22;2391;47.212;7.542;2023-05-07T03:10:20;18.50;91.80
4755;DHT22;2391;47.212;7.542;2023-05-07T03:12:45;18.50;91.80
4755;DHT22;2391;47.212;7.542;2023-05-07T03:15:11;18.50;91.80
4755;DHT22;2391;47.212;7.542;2023-05-07T03:17:38;18.50;91.90
4755;DHT22;2391;47.212;7.542;2023-05-07T03:20:05;18.50;91.90
4755;DHT22;2391;47.212;7.542;2023-05-07T03:22:31;18.40;91.70
4755;DHT22;2391;47.212;7.542;2023-05-07T03:24:57;18.40;91.70
4755;DHT22;2391;47.212;7.542;2023-05-07T03:27:22;18.40;91.90
4755;DHT22;2391;47.212;7.542;2023-05-07T03:29:48;18.40;91.90
4755;DHT22;2391;47.212;7.542;2023-05-07T03:32:14;18.30;91.80
4755;DHT22;2391;47.212;7.542;2023-05-07T03:34:39;18.30;91.70
4755;DHT22;2391;47.212;7.542;2023-05-07T03:37:06;18.30;91.80
4755;DHT22;2391;47.212;7.542;2023-05-07T03:39:31;18.30;91.80
4755;DHT22;2391;47.212;7.542;2023-05-07T03:41:58;18.20;91.70
4755;DHT22;2391;47.212;7.542;2023-05-07T03:44:23;18.20;91.80
4755;DHT22;2391;47.212;7.542;2023-05-07T03:46:49;18.20;91.90
4755;DHT22;2391;47.212;7.542;2023-05-07T03:49:15;18.20;92.00
4755;DHT22;2391;47.212;7.542;2023-05-07T03:51:41;18.20;92.00
4755;DHT22;2391;47.212;7.542;2023-05-07T03:54:07;18.10;92.00
4755;DHT22;2391;47.212;7.542;2023-05-07T03:56:33;18.10;91.90
4755;DHT22;2391;47.212;7.542;2023-05-07T03:59:00;18.10;92.00
4755;DHT22;2391;47.212;7.542;2023-05-07T04:01:26;18.10;92.00
4755;DHT22;2391;47.212;7.542;2023-05-07T04:03:51;18.10;91.90
4755;DHT22;2391;47.212;7.542;2023-05-07T04:06:17;18.10;91.90
4755;DHT22;2391;47.212;7.542;2023-05-07T04:08:43;18.00;91.90
4755;DHT22;2391;47.212;7.542;2023-05-07T04:11:09;18.00;92.00
4755;DHT22;2391;47.212;7.542;2023-05-07T04:13:34;18.00;92.00
4755;DHT22;2391;47.212;7.542;2023-05-07T04:16:02;18.00;92.10
4755;DHT22;2391;47.212;7.542;2023-05-07T04:18:28;18.00;92.10
4755;DHT22;2391;47.212;7.542;2023-05-07T04:20:54;18.00;92.00
4755;DHT22;2391;47.212;7.542;2023-05-07T04:23:20;18.00;92.10
4755;DHT22;2391;47.212;7.542;2023-05-07T04:25:46;18.00;92.10
4755;DHT22;2391;47.212;7.542;2023-05-07T04:28:12;18.00;92.10
4755;DHT22;2391;47.212;7.542;2023-05-07T04:30:38;18.00;92.10
4755;DHT22;2391;47.212;7.542;2023-05-07T04:33:04;17.90;92.00
4755;DHT22;2391;47.212;7.542;2023-05-07T04:35:30;17.90;92.10
4755;DHT22;2391;47.212;7.542;2023-05-07T04:37:55;17.90;92.20
4755;DHT22;2391;47.212;7.542;2023-05-07T04:40:21;17.90;92.20
4755;DHT22;2391;47.212;7.542;2023-05-07T04:42:47;17.90;92.30
4755;DHT22;2391;47.212;7.542;2023-05-07T04:45:12;17.80;92.30
4755;DHT22;2391;47.212;7.542;2023-05-07T04:47:38;17.80;92.40
4755;DHT22;2391;47.212;7.542;2023-05-07T04:50:06;17.80;92.50
4755;DHT22;2391;47.212;7.542;2023-05-07T04:52:32;17.90;92.50
4755;DHT22;2391;47.212;7.542;2023-05-07T04:54:59;17.80;92.50
4755;DHT22;2391;47.212;7.542;2023-05-07T04:57:26;17.80;92.50
4755;DHT22;2391;47.212;7.542;2023-05-07T04:59:53;17.80;92.50
4755;DHT22;2391;47.212;7.542;2023-05-07T05:02:19;17.80;92.30
4755;DHT22;2391;47.212;7.542;2023-05-07T05:04:45;17.80;92.40
4755;DHT22;2391;47.212;7.542;2023-05-07T05:07:11;17.80;92.40
4755;DHT22;2391;47.212;7.542;2023-05-07T05:09:36;17.80;92.50
4755;DHT22;2391;47.212;7.542;2023-05-07T05:12:02;17.80;92.60
4755;DHT22;2391;47.212;7.542;2023-05-07T05:14:29;17.90;92.70
4755;DHT22;2391;47.212;7.542;2023-05-07T05:16:55;17.90;92.70
4755;DHT22;2391;47.212;7.542;2023-05-07T05:19:20;17.90;92.60
4755;DHT22;2391;47.212;7.542;2023-05-07T05:21:46;18.00;92.60
4755;DHT22;2391;47.212;7.542;2023-05-07T05:24:12;18.00;92.60
4755;DHT22;2391;47.212;7.542;2023-05-07T05:26:38;18.00;92.50
4755;DHT22;2391;47.212;7.542;2023-05-07T05:29:03;18.10;92.60
4755;DHT22;2391;47.212;7.542;2023-05-07T05:31:29;18.10;92.60
4755;DHT22;2391;47.212;7.542;2023-05-07T05:33:55;18.10;92.80
4755;DHT22;2391;47.212;7.542;2023-05-07T05:36:21;18.00;92.80
4755;DHT22;2391;47.212;7.542;2023-05-07T05:38:47;18.00;92.80
4755;DHT22;2391;47.212;7.542;2023-05-07T05:41:13;18.00;92.90
4755;DHT22;2391;47.212;7.542;2023-05-07T05:43:42;17.90;93.00
4755;DHT22;2391;47.212;7.542;2023-05-07T05:46:07;17.90;93.10
4755;DHT22;2391;47.212;7.542;2023-05-07T05:48:35;17.90;93.20
4755;DHT22;2391;47.212;7.542;2023-05-07T05:51:01;17.90;93.20
4755;DHT22;2391;47.212;7.542;2023-05-07T05:53:27;18.00;93.30
4755;DHT22;2391;47.212;7.542;2023-05-07T05:55:53;18.00;93.40
4755;DHT22;2391;47.212;7.542;2023-05-07T05:58:18;18.00;93.60
4755;DHT22;2391;47.212;7.542;2023-05-07T06:00:46;17.90;93.60
4755;DHT22;2391;47.212;7.542;2023-05-07T06:03:13;18.00;93.80
4755;DHT22;2391;47.212;7.542;2023-05-07T06:05:39;18.00;93.90
4755;DHT22;2391;47.212;7.542;2023-05-07T06:08:05;17.90;94.00
4755;DHT22;2391;47.212;7.542;2023-05-07T06:10:31;18.00;94.20
4755;DHT22;2391;47.212;7.542;2023-05-07T06:12:57;18.20;94.20
4755;DHT22;2391;47.212;7.542;2023-05-07T06:15:22;18.30;94.10
4755;DHT22;2391;47.212;7.542;2023-05-07T06:17:48;18.40;94.10
4755;DHT22;2391;47.212;7.542;2023-05-07T06:20:14;18.60;93.90
4755;DHT22;2391;47.212;7.542;2023-05-07T06:22:40;18.70;93.90
4755;DHT22;2391;47.212;7.542;2023-05-07T06:25:06;18.90;93.90
4755;DHT22;2391;47.212;7.542;2023-05-07T06:27:32;19.00;93.80
4755;DHT22;2391;47.212;7.542;2023-05-07T06:29:58;19.10;93.40
4755;DHT22;2391;47.212;7.542;2023-05-07T06:32:24;19.20;93.60
4755;DHT22;2391;47.212;7.542;2023-05-07T06:34:50;19.20;93.70
4755;DHT22;2391;47.212;7.542;2023-05-07T06:37:15;19.30;93.70
4755;DHT22;2391;47.212;7.542;2023-05-07T06:39:41;19.40;93.70
4755;DHT22;2391;47.212;7.542;2023-05-07T06:42:07;19.50;93.60
4755;DHT22;2391;47.212;7.542;2023-05-07T06:44:32;19.60;93.40
4755;DHT22;2391;47.212;7.542;2023-05-07T06:46:58;19.70;93.40
4755;DHT22;2391;47.212;7.542;2023-05-07T06:49:24;19.80;93.50
4755;DHT22;2391;47.212;7.542;2023-05-07T06:51:50;19.90;93.30
4755;DHT22;2391;47.212;7.542;2023-05-07T06:54:16;20.00;93.30
4755;DHT22;2391;47.212;7.542;2023-05-07T06:56:42;20.00;93.70
4755;DHT22;2391;47.212;7.542;2023-05-07T06:59:08;20.10;93.30
4755;DHT22;2391;47.212;7.542;2023-05-07T07:01:33;20.20;93.00
4755;DHT22;2391;47.212;7.542;2023-05-07T07:03:59;20.30;92.80
4755;DHT22;2391;47.212;7.542;2023-05-07T07:06:26;20.40;92.80
4755;DHT22;2391;47.212;7.542;2023-05-07T07:08:52;20.50;92.70
4755;DHT22;2391;47.212;7.542;2023-05-07T07:11:18;20.40;92.40
4755;DHT22;2391;47.212;7.542;2023-05-07T07:13:43;20.40;92.70
4755;DHT22;2391;47.212;7.542;2023-05-07T07:16:12;20.30;92.80
4755;DHT22;2391;47.212;7.542;2023-05-07T07:18:38;20.40;93.00
4755;DHT22;2391;47.212;7.542;2023-05-07T07:21:04;20.40;93.10
4755;DHT22;2391;47.212;7.542;2023-05-07T07:23:29;20.40;92.80
4755;DHT22;2391;47.212;7.542;2023-05-07T07:25:55;20.50;92.90
4755;DHT22;2391;47.212;7.542;2023-05-07T07:28:22;20.60;93.40
4755;DHT22;2391;47.212;7.542;2023-05-07T07:30:48;20.70;92.90
4755;DHT22;2391;47.212;7.542;2023-05-07T07:33:13;20.80;92.80
4755;DHT22;2391;47.212;7.542;2023-05-07T07:35:40;20.80;92.60
4755;DHT22;2391;47.212;7.542;2023-05-07T07:38:05;20.90;92.40
4755;DHT22;2391;47.212;7.542;2023-05-07T07:40:31;21.10;92.40
4755;DHT22;2391;47.212;7.542;2023-05-07T07:42:57;21.20;92.30
4755;DHT22;2391;47.212;7.542;2023-05-07T07:45:23;21.20;92.10
4755;DHT22;2391;47.212;7.542;2023-05-07T07:47:48;21.20;92.30
4755;DHT22;2391;47.212;7.542;2023-05-07T07:50:14;21.20;92.70
4755;DHT22;2391;47.212;7.542;2023-05-07T07:52:40;21.30;92.80
4755;DHT22;2391;47.212;7.542;2023-05-07T07:55:07;21.40;92.70
4755;DHT22;2391;47.212;7.542;2023-05-07T07:57:32;21.50;92.10
4755;DHT22;2391;47.212;7.542;2023-05-07T07:59:58;21.60;91.90
4755;DHT22;2391;47.212;7.542;2023-05-07T08:02:24;21.60;91.70
4755;DHT22;2391;47.212;7.542;2023-05-07T08:04:50;21.60;91.60
4755;DHT22;2391;47.212;7.542;2023-05-07T08:07:16;21.70;91.70
4755;DHT22;2391;47.212;7.542;2023-05-07T08:09:44;21.80;91.90
4755;DHT22;2391;47.212;7.542;2023-05-07T08:12:10;21.80;92.00
4755;DHT22;2391;47.212;7.542;2023-05-07T08:14:35;21.80;91.70
4755;DHT22;2391;47.212;7.542;2023-05-07T08:17:02;21.90;91.80
4755;DHT22;2391;47.212;7.542;2023-05-07T08:19:28;22.00;91.80
4755;DHT22;2391;47.212;7.542;2023-05-07T08:21:53;22.00;91.70
4755;DHT22;2391;47.212;7.542;2023-05-07T08:24:20;22.00;91.30
4755;DHT22;2391;47.212;7.542;2023-05-07T08:26:46;22.00;91.20
4755;DHT22;2391;47.212;7.542;2023-05-07T08:29:12;22.10;91.20
4755;DHT22;2391;47.212;7.542;2023-05-07T08:31:38;22.00;91.00
4755;DHT22;2391;47.212;7.542;2023-05-07T08:34:06;22.10;91.10
4755;DHT22;2391;47.212;7.542;2023-05-07T08:36:32;22.00;90.80
4755;DHT22;2391;47.212;7.542;2023-05-07T08:38:59;22.00;91.20
4755;DHT22;2391;47.212;7.542;2023-05-07T08:41:25;21.90;91.50
4755;DHT22;2391;47.212;7.542;2023-05-07T08:43:51;21.80;91.70
4755;DHT22;2391;47.212;7.542;2023-05-07T08:46:18;21.70;91.90
4755;DHT22;2391;47.212;7.542;2023-05-07T08:48:47;21.60;92.10
4755;DHT22;2391;47.212;7.542;2023-05-07T08:51:16;21.60;91.70
4755;DHT22;2391;47.212;7.542;2023-05-07T08:53:42;21.70;91.60
4755;DHT22;2391;47.212;7.542;2023-05-07T08:56:09;21.70;91.40
4755;DHT22;2391;47.212;7.542;2023-05-07T08:58:35;21.70;91.50
4755;DHT22;2391;47.212;7.542;2023-05-07T09:01:12;21.80;91.50
4755;DHT22;2391;47.212;7.542;2023-05-07T09:03:38;21.90;91.30
4755;DHT22;2391;47.212;7.542;2023-05-07T09:06:05;21.90;91.20
4755;DHT22;2391;47.212;7.542;2023-05-07T09:08:32;21.90;90.80
4755;DHT22;2391;47.212;7.542;2023-05-07T09:10:58;21.90;90.80
4755;DHT22;2391;47.212;7.542;2023-05-07T09:13:24;21.90;90.80
4755;DHT22;2391;47.212;7.542;2023-05-07T09:15:50;21.90;91.10
4755;DHT22;2391;47.212;7.542;2023-05-07T09:18:16;21.80;90.90
4755;DHT22;2391;47.212;7.542;2023-05-07T09:20:42;21.80;91.90
4755;DHT22;2391;47.212;7.542;2023-05-07T09:23:08;21.90;91.70
4755;DHT22;2391;47.212;7.542;2023-05-07T09:25:35;21.90;91.70
4755;DHT22;2391;47.212;7.542;2023-05-07T09:28:03;21.90;91.80
4755;DHT22;2391;47.212;7.542;2023-05-07T09:30:30;22.00;91.90
4755;DHT22;2391;47.212;7.542;2023-05-07T09:33:00;22.10;91.40
4755;DHT22;2391;47.212;7.542;2023-05-07T09:35:30;22.10;91.60
4755;DHT22;2391;47.212;7.542;2023-05-07T09:37:59;22.10;91.80
4755;DHT22;2391;47.212;7.542;2023-05-07T09:40:28;22.10;91.60
4755;DHT22;2391;47.212;7.542;2023-05-07T09:42:55;22.10;91.60
4755;DHT22;2391;47.212;7.542;2023-05-07T09:45:29;22.10;91.50
4755;DHT22;2391;47.212;7.542;2023-05-07T09:47:57;22.10;91.70
4755;DHT22;2391;47.212;7.542;2023-05-07T09:50:28;22.00;91.70
4755;DHT22;2391;47.212;7.542;2023-05-07T09:52:56;22.10;91.90
4755;DHT22;2391;47.212;7.542;2023-05-07T09:55:22;22.10;92.00
4755;DHT22;2391;47.212;7.542;2023-05-07T09:57:51;22.10;92.00
4755;DHT22;2391;47.212;7.542;2023-05-07T10:00:22;22.00;91.80
4755;DHT22;2391;47.212;7.542;2023-05-07T10:02:49;21.90;92.10
4755;DHT22;2391;47.212;7.542;2023-05-07T10:05:22;21.90;92.30
4755;DHT22;2391;47.212;7.542;2023-05-07T10:07:48;21.90;92.60
4755;DHT22;2391;47.212;7.542;2023-05-07T10:10:17;22.00;92.60
4755;DHT22;2391;47.212;7.542;2023-05-07T10:12:46;22.00;92.90
4755;DHT22;2391;47.212;7.542;2023-05-07T10:15:15;22.10;92.70
4755;DHT22;2391;47.212;7.542;2023-05-07T10:17:41;22.10;92.10
4755;DHT22;2391;47.212;7.542;2023-05-07T10:20:07;22.00;92.10
4755;DHT22;2391;47.212;7.542;2023-05-07T10:22:40;22.00;92.50
4755;DHT22;2391;47.212;7.542;2023-05-07T10:25:25;22.10;92.90
4755;DHT22;2391;47.212;7.542;2023-05-07T10:27:52;22.20;92.80
4755;DHT22;2391;47.212;7.542;2023-05-07T10:30:26;22.20;92.30
4755;DHT22;2391;47.212;7.542;2023-05-07T10:32:53;22.20;92.20
4755;DHT22;2391;47.212;7.542;2023-05-07T10:35:29;22.20;92.70
4755;DHT22;2391;47.212;7.542;2023-05-07T10:37:54;22.20;92.20
4755;DHT22;2391;47.212;7.542;2023-05-07T10:40:21;22.30;92.70
4755;DHT22;2391;47.212;7.542;2023-05-07T10:42:58;22.30;92.80
4755;DHT22;2391;47.212;7.542;2023-05-07T10:45:26;22.40;92.80
4755;DHT22;2391;47.212;7.542;2023-05-07T10:48:10;22.50;92.50
4755;DHT22;2391;47.212;7.542;2023-05-07T10:50:39;22.50;92.00
4755;DHT22;2391;47.212;7.542;2023-05-07T10:55:48;22.50;90.50
4755;DHT22;2391;47.212;7.542;2023-05-07T10:58:29;22.50;90.90
4755;DHT22;2391;47.212;7.542;2023-05-07T11:00:58;22.40;91.10
4755;DHT22;2391;47.212;7.542;2023-05-07T11:03:25;22.40;91.30
4755;DHT22;2391;47.212;7.542;2023-05-07T11:08:57;22.40;91.30
4755;DHT22;2391;47.212;7.542;2023-05-07T11:11:45;22.50;91.70
4755;DHT22;2391;47.212;7.542;2023-05-07T11:14:14;22.60;92.80
4755;DHT22;2391;47.212;7.542;2023-05-07T11:16:41;22.70;92.60
4755;DHT22;2391;47.212;7.542;2023-05-07T11:19:09;22.70;93.00
4755;DHT22;2391;47.212;7.542;2023-05-07T11:21:39;22.80;92.30
4755;DHT22;2391;47.212;7.542;2023-05-07T11:24:07;22.90;92.40
4755;DHT22;2391;47.212;7.542;2023-05-07T11:26:42;23.00;91.40
4755;DHT22;2391;47.212;7.542;2023-05-07T11:29:20;23.00;91.40
4755;DHT22;2391;47.212;7.542;2023-05-07T11:31:50;23.10;91.40
4755;DHT22;2391;47.212;7.542;2023-05-07T11:34:23;23.00;90.90
4755;DHT22;2391;47.212;7.542;2023-05-07T11:36:50;23.00;91.20
4755;DHT22;2391;47.212;7.542;2023-05-07T11:39:27;23.00;91.20
4755;DHT22;2391;47.212;7.542;2023-05-07T11:41:53;23.00;90.80
4755;DHT22;2391;47.212;7.542;2023-05-07T11:44:19;23.10;91.00
4755;DHT22;2391;47.212;7.542;2023-05-07T11:46:45;23.20;91.00
4755;DHT22;2391;47.212;7.542;2023-05-07T11:49:11;23.20;90.70
4755;DHT22;2391;47.212;7.542;2023-05-07T11:51:36;23.20;90.50
4755;DHT22;2391;47.212;7.542;2023-05-07T11:54:05;23.20;90.30
4755;DHT22;2391;47.212;7.542;2023-05-07T11:56:34;23.20;90.10
4755;DHT22;2391;47.212;7.542;2023-05-07T11:59:00;23.20;89.20
4755;DHT22;2391;47.212;7.542;2023-05-07T12:01:26;23.20;89.10
4755;DHT22;2391;47.212;7.542;2023-05-07T12:03:52;23.20;88.50
4755;DHT22;2391;47.212;7.542;2023-05-07T12:06:18;23.20;88.80
4755;DHT22;2391;47.212;7.542;2023-05-07T12:08:45;23.20;87.50
4755;DHT22;2391;47.212;7.542;2023-05-07T12:11:24;23.20;87.20
4755;DHT22;2391;47.212;7.542;2023-05-07T12:13:51;23.20;87.30
4755;DHT22;2391;47.212;7.542;2023-05-07T12:16:17;23.30;88.00
4755;DHT22;2391;47.212;7.542;2023-05-07T12:18:43;23.30;86.30
4755;DHT22;2391;47.212;7.542;2023-05-07T12:21:09;23.40;86.20
4755;DHT22;2391;47.212;7.542;2023-05-07T12:23:37;23.40;86.40
4755;DHT22;2391;47.212;7.542;2023-05-07T12:26:04;23.50;87.20
4755;DHT22;2391;47.212;7.542;2023-05-07T12:28:36;23.50;86.50
4755;DHT22;2391;47.212;7.542;2023-05-07T12:30:59;23.40;86.90
4755;DHT22;2391;47.212;7.542;2023-05-07T12:33:27;23.40;86.50
4755;DHT22;2391;47.212;7.542;2023-05-07T12:35:55;23.30;86.00
4755;DHT22;2391;47.212;7.542;2023-05-07T12:38:35;23.30;85.70
4755;DHT22;2391;47.212;7.542;2023-05-07T12:40:59;23.40;85.60
4755;DHT22;2391;47.212;7.542;2023-05-07T12:43:26;23.40;85.00
4755;DHT22;2391;47.212;7.542;2023-05-07T12:45:57;23.40;84.90
4755;DHT22;2391;47.212;7.542;2023-05-07T12:48:28;23.40;85.40
4755;DHT22;2391;47.212;7.542;2023-05-07T12:53:40;23.30;84.50
4755;DHT22;2391;47.212;7.542;2023-05-07T12:56:17;23.40;84.90
4755;DHT22;2391;47.212;7.542;2023-05-07T12:58:56;23.30;84.70
4755;DHT22;2391;47.212;7.542;2023-05-07T13:01:33;23.40;83.30
4755;DHT22;2391;47.212;7.542;2023-05-07T13:04:00;23.40;83.60
4755;DHT22;2391;47.212;7.542;2023-05-07T13:06:29;23.50;83.70
4755;DHT22;2391;47.212;7.542;2023-05-07T13:08:55;23.50;83.60
4755;DHT22;2391;47.212;7.542;2023-05-07T13:11:21;23.60;83.40
4755;DHT22;2391;47.212;7.542;2023-05-07T13:13:48;23.60;83.70
4755;DHT22;2391;47.212;7.542;2023-05-07T13:16:14;23.60;83.30
4755;DHT22;2391;47.212;7.542;2023-05-07T13:18:40;23.50;83.60
4755;DHT22;2391;47.212;7.542;2023-05-07T13:21:07;23.50;83.90
4755;DHT22;2391;47.212;7.542;2023-05-07T13:23:34;23.60;83.70
4755;DHT22;2391;47.212;7.542;2023-05-07T13:25:59;23.60;84.20
4755;DHT22;2391;47.212;7.542;2023-05-07T13:28:26;23.60;83.50
4755;DHT22;2391;47.212;7.542;2023-05-07T13:30:52;23.60;82.50
4755;DHT22;2391;47.212;7.542;2023-05-07T13:33:18;23.40;82.10
4755;DHT22;2391;47.212;7.542;2023-05-07T13:35:44;23.40;83.20
4755;DHT22;2391;47.212;7.542;2023-05-07T13:38:10;23.40;83.10
4755;DHT22;2391;47.212;7.542;2023-05-07T13:40:36;23.40;82.70
4755;DHT22;2391;47.212;7.542;2023-05-07T13:43:02;23.40;83.60
4755;DHT22;2391;47.212;7.542;2023-05-07T13:45:28;23.40;83.90
4755;DHT22;2391;47.212;7.542;2023-05-07T13:47:55;23.50;83.20
4755;DHT22;2391;47.212;7.542;2023-05-07T13:50:21;23.50;82.80
4755;DHT22;2391;47.212;7.542;2023-05-07T13:52:47;23.50;82.60
4755;DHT22;2391;47.212;7.542;2023-05-07T13:55:15;23.50;82.20
4755;DHT22;2391;47.212;7.542;2023-05-07T13:57:41;23.40;82.40
4755;DHT22;2391;47.212;7.542;2023-05-07T14:00:07;23.40;81.40
4755;DHT22;2391;47.212;7.542;2023-05-07T14:02:34;23.40;82.20
4755;DHT22;2391;47.212;7.542;2023-05-07T14:04:59;23.50;83.00
4755;DHT22;2391;47.212;7.542;2023-05-07T14:07:25;23.50;82.70
4755;DHT22;2391;47.212;7.542;2023-05-07T14:09:51;23.50;82.80
4755;DHT22;2391;47.212;7.542;2023-05-07T14:12:17;23.60;83.00
4755;DHT22;2391;47.212;7.542;2023-05-07T14:14:57;23.60;83.10
4755;DHT22;2391;47.212;7.542;2023-05-07T14:17:23;23.50;82.80
4755;DHT22;2391;47.212;7.542;2023-05-07T14:19:51;23.50;83.40
4755;DHT22;2391;47.212;7.542;2023-05-07T14:22:20;23.50;83.50
4755;DHT22;2391;47.212;7.542;2023-05-07T14:24:45;23.30;83.60
4755;DHT22;2391;47.212;7.542;2023-05-07T14:27:11;23.20;83.90
4755;DHT22;2391;47.212;7.542;2023-05-07T14:29:46;23.10;83.30
4755;DHT22;2391;47.212;7.542;2023-05-07T14:32:14;22.90;83.70
4755;DHT22;2391;47.212;7.542;2023-05-07T14:34:39;22.90;83.50
4755;DHT22;2391;47.212;7.542;2023-05-07T14:37:05;22.90;83.40
4755;DHT22;2391;47.212;7.542;2023-05-07T14:39:31;22.90;83.30
4755;DHT22;2391;47.212;7.542;2023-05-07T14:41:57;22.80;83.00
4755;DHT22;2391;47.212;7.542;2023-05-07T14:44:22;22.80;82.80
4755;DHT22;2391;47.212;7.542;2023-05-07T14:46:48;22.70;83.50
4755;DHT22;2391;47.212;7.542;2023-05-07T14:49:14;22.60;83.30
4755;DHT22;2391;47.212;7.542;2023-05-07T14:51:43;22.60;83.50
4755;DHT22;2391;47.212;7.542;2023-05-07T14:54:10;22.60;83.80
4755;DHT22;2391;47.212;7.542;2023-05-07T14:56:35;22.60;84.00
4755;DHT22;2391;47.212;7.542;2023-05-07T14:59:02;22.60;84.10
4755;DHT22;2391;47.212;7.542;2023-05-07T15:01:29;22.70;84.90
4755;DHT22;2391;47.212;7.542;2023-05-07T15:03:55;22.80;85.70
4755;DHT22;2391;47.212;7.542;2023-05-07T15:06:21;22.80;85.80
4755;DHT22;2391;47.212;7.542;2023-05-07T15:08:47;22.80;88.70
4755;DHT22;2391;47.212;7.542;2023-05-07T15:11:14;22.80;90.00
4755;DHT22;2391;47.212;7.542;2023-05-07T15:13:42;22.80;89.60
4755;DHT22;2391;47.212;7.542;2023-05-07T15:16:08;22.60;89.00
4755;DHT22;2391;47.212;7.542;2023-05-07T15:18:34;22.50;90.10
4755;DHT22;2391;47.212;7.542;2023-05-07T15:20:59;22.50;90.90
4755;DHT22;2391;47.212;7.542;2023-05-07T15:23:26;22.50;90.60
4755;DHT22;2391;47.212;7.542;2023-05-07T15:25:52;22.50;90.80
4755;DHT22;2391;47.212;7.542;2023-05-07T15:28:19;22.60;91.20
4755;DHT22;2391;47.212;7.542;2023-05-07T15:30:45;22.60;91.20
4755;DHT22;2391;47.212;7.542;2023-05-07T15:33:10;22.70;91.40
4755;DHT22;2391;47.212;7.542;2023-05-07T15:35:36;22.60;91.70
4755;DHT22;2391;47.212;7.542;2023-05-07T15:38:02;22.40;92.30
4755;DHT22;2391;47.212;7.542;2023-05-07T15:40:29;22.20;92.60
4755;DHT22;2391;47.212;7.542;2023-05-07T15:42:55;22.10;92.70
4755;DHT22;2391;47.212;7.542;2023-05-07T15:45:22;22.00;92.90
4755;DHT22;2391;47.212;7.542;2023-05-07T15:47:48;21.90;93.10
4755;DHT22;2391;47.212;7.542;2023-05-07T15:50:14;21.80;93.50
4755;DHT22;2391;47.212;7.542;2023-05-07T15:52:40;21.70;93.80
4755;DHT22;2391;47.212;7.542;2023-05-07T15:55:07;21.60;93.90
4755;DHT22;2391;47.212;7.542;2023-05-07T15:57:34;21.50;94.10
4755;DHT22;2391;47.212;7.542;2023-05-07T16:00:01;21.30;94.10
4755;DHT22;2391;47.212;7.542;2023-05-07T16:02:28;21.20;94.40
4755;DHT22;2391;47.212;7.542;2023-05-07T16:04:54;21.20;94.50
4755;DHT22;2391;47.212;7.542;2023-05-07T16:07:19;21.20;94.40